sensor_id;sensor_type;location;lat;lon;timestamp;P1;durP1;ratioP1;P2;durP2;ratioP2
57893;SDS011;43710;47.460;19.034;2022-10-18T03:57:24;20.85;;;12.57;;
57893;SDS011;43710;47.460;19.034;2022-10-18T04:00:26;17.23;;;11.98;;
57893;SDS011;43710;47.460;19.034;2022-10-18T04:03:29;18.73;;;12.63;;
57893;SDS011;43710;47.460;19.034;2022-10-18T04:06:31;18.45;;;12.50;;
57893;SDS011;43710;47.460;19.034;2022-10-18T04:09:33;18.87;;;11.77;;
57893;SDS011;43710;47.460;19.034;2022-10-18T04:12:35;16.37;;;12.63;;
57893;SDS011;43710;47.460;19.034;2022-10-18T04:15:37;17.58;;;11.60;;
57893;SDS011;43710;47.460;19.034;2022-10-18T04:18:40;16.12;;;12.37;;
57893;SDS011;43710;47.460;19.034;2022-10-18T04:21:42;20.48;;;13.65;;
57893;SDS011;43710;47.460;19.034;2022-10-18T04:24:44;16.55;;;12.20;;
57893;SDS011;43710;47.460;19.034;2022-10-18T04:27:46;40.03;;;13.93;;
57893;SDS011;43710;47.460;19.034;2022-10-18T04:30:51;21.08;;;12.85;;
57893;SDS011;43710;47.460;19.034;2022-10-18T04:33:54;20.05;;;12.48;;
57893;SDS011;43710;47.460;19.034;2022-10-18T04:36:56;18.60;;;12.48;;
57893;SDS011;43710;47.460;19.034;2022-10-18T04:39:58;18.25;;;12.88;;
57893;SDS011;43710;47.460;19.034;2022-10-18T04:43:00;17.65;;;11.82;;
57893;SDS011;43710;47.460;19.034;2022-10-18T04:46:03;20.23;;;12.25;;
57893;SDS011;43710;47.460;19.034;2022-10-18T04:49:05;18.10;;;12.93;;
57893;SDS011;43710;47.460;19.034;2022-10-18T04:52:07;18.70;;;12.93;;
57893;SDS011;43710;47.460;19.034;2022-10-18T04:55:10;21.55;;;13.77;;
57893;SDS011;43710;47.460;19.034;2022-10-18T04:58:12;18.77;;;13.18;;
57893;SDS011;43710;47.460;19.034;2022-10-18T05:01:14;18.90;;;13.27;;
57893;SDS011;43710;47.460;19.034;2022-10-18T05:04:18;19.12;;;13.40;;
57893;SDS011;43710;47.460;19.034;2022-10-18T05:07:20;36.45;;;13.48;;
57893;SDS011;43710;47.460;19.034;2022-10-18T05:10:22;20.40;;;13.05;;
57893;SDS011;43710;47.460;19.034;2022-10-18T05:13:24;22.25;;;13.62;;
57893;SDS011;43710;47.460;19.034;2022-10-18T05:16:27;21.20;;;13.48;;
57893;SDS011;43710;47.460;19.034;2022-10-18T05:19:29;20.60;;;14.10;;
57893;SDS011;43710;47.460;19.034;2022-10-18T05:22:31;27.05;;;13.90;;
57893;SDS011;43710;47.460;19.034;2022-10-18T05:25:34;22.58;;;13.52;;
57893;SDS011;43710;47.460;19.034;2022-10-18T05:28:39;24.10;;;13.77;;
57893;SDS011;43710;47.460;19.034;2022-10-18T05:31:42;26.08;;;14.55;;
57893;SDS011;43710;47.460;19.034;2022-10-18T05:34:44;27.62;;;14.38;;
57893;SDS011;43710;47.460;19.034;2022-10-18T05:37:46;42.00;;;14.65;;
57893;SDS011;43710;47.460;19.034;2022-10-18T05:40:49;21.42;;;14.82;;
57893;SDS011;43710;47.460;19.034;2022-10-18T05:43:51;19.77;;;13.32;;
57893;SDS011;43710;47.460;19.034;2022-10-18T05:46:53;22.67;;;13.88;;
57893;SDS011;43710;47.460;19.034;2022-10-18T05:49:55;24.15;;;14.45;;
57893;SDS011;43710;47.460;19.034;2022-10-18T05:52:58;36.65;;;15.27;;
57893;SDS011;43710;47.460;19.034;2022-10-18T05:56:13;27.80;;;14.85;;
57893;SDS011;43710;47.460;19.034;2022-10-18T05:59:15;54.60;;;17.20;;
57893;SDS011;43710;47.460;19.034;2022-10-18T06:02:17;51.47;;;17.30;;
57893;SDS011;43710;47.460;19.034;2022-10-18T06:05:20;33.08;;;16.87;;
57893;SDS011;43710;47.460;19.034;2022-10-18T06:08:22;43.03;;;17.75;;
57893;SDS011;43710;47.460;19.034;2022-10-18T06:11:24;42.85;;;18.02;;
57893;SDS011;43710;47.460;19.034;2022-10-18T06:14:27;33.85;;;17.30;;
57893;SDS011;43710;47.460;19.034;2022-10-18T06:17:29;41.75;;;18.65;;
57893;SDS011;43710;47.460;19.034;2022-10-18T06:20:33;40.03;;;17.35;;
57893;SDS011;43710;47.460;19.034;2022-10-18T06:23:35;46.60;;;17.35;;
57893;SDS011;43710;47.460;19.034;2022-10-18T06:26:37;49.15;;;18.00;;
57893;SDS011;43710;47.460;19.034;2022-10-18T06:29:40;100.43;;;20.33;;
57893;SDS011;43710;47.460;19.034;2022-10-18T06:32:42;31.20;;;17.62;;
57893;SDS011;43710;47.460;19.034;2022-10-18T06:36:00;41.00;;;18.30;;
57893;SDS011;43710;47.460;19.034;2022-10-18T06:39:08;33.97;;;17.90;;
57893;SDS011;43710;47.460;19.034;2022-10-18T06:42:11;36.78;;;19.70;;
57893;SDS011;43710;47.460;19.034;2022-10-18T06:45:13;40.88;;;19.25;;
57893;SDS011;43710;47.460;19.034;2022-10-18T06:48:17;37.42;;;19.73;;
57893;SDS011;43710;47.460;19.034;2022-10-18T06:51:20;29.08;;;18.00;;
57893;SDS011;43710;47.460;19.034;2022-10-18T06:54:23;30.25;;;18.62;;
57893;SDS011;43710;47.460;19.034;2022-10-18T06:57:25;32.53;;;18.65;;
57893;SDS011;43710;47.460;19.034;2022-10-18T07:00:27;28.80;;;20.12;;
57893;SDS011;43710;47.460;19.034;2022-10-18T07:03:29;28.12;;;19.55;;
57893;SDS011;43710;47.460;19.034;2022-10-18T07:06:32;28.73;;;19.42;;
57893;SDS011;43710;47.460;19.034;2022-10-18T07:09:34;29.42;;;19.98;;
57893;SDS011;43710;47.460;19.034;2022-10-18T07:12:36;25.92;;;19.50;;
57893;SDS011;43710;47.460;19.034;2022-10-18T07:15:41;37.58;;;20.95;;
57893;SDS011;43710;47.460;19.034;2022-10-18T07:18:45;41.85;;;20.98;;
57893;SDS011;43710;47.460;19.034;2022-10-18T07:21:49;40.53;;;22.17;;
57893;SDS011;43710;47.460;19.034;2022-10-18T07:24:52;30.35;;;19.98;;
57893;SDS011;43710;47.460;19.034;2022-10-18T07:27:54;57.50;;;21.75;;
57893;SDS011;43710;47.460;19.034;2022-10-18T07:30:56;71.87;;;23.48;;
57893;SDS011;43710;47.460;19.034;2022-10-18T07:34:07;42.50;;;21.10;;
57893;SDS011;43710;47.460;19.034;2022-10-18T07:37:13;25.52;;;19.87;;
57893;SDS011;43710;47.460;19.034;2022-10-18T07:40:15;115.97;;;23.75;;
57893;SDS011;43710;47.460;19.034;2022-10-18T07:43:17;32.65;;;19.33;;
57893;SDS011;43710;47.460;19.034;2022-10-18T07:46:20;27.70;;;19.27;;
57893;SDS011;43710;47.460;19.034;2022-10-18T07:49:23;433.42;;;42.60;;
57893;SDS011;43710;47.460;19.034;2022-10-18T07:52:25;51.53;;;20.67;;
57893;SDS011;43710;47.460;19.034;2022-10-18T07:55:27;26.00;;;18.75;;
57893;SDS011;43710;47.460;19.034;2022-10-18T07:58:30;30.90;;;18.52;;
57893;SDS011;43710;47.460;19.034;2022-10-18T08:01:33;28.85;;;18.25;;
57893;SDS011;43710;47.460;19.034;2022-10-18T08:04:36;23.30;;;19.58;;
57893;SDS011;43710;47.460;19.034;2022-10-18T08:07:38;48.10;;;20.08;;
57893;SDS011;43710;47.460;19.034;2022-10-18T08:10:40;33.92;;;19.92;;
57893;SDS011;43710;47.460;19.034;2022-10-18T08:13:44;34.95;;;21.25;;
57893;SDS011;43710;47.460;19.034;2022-10-18T08:16:47;42.15;;;21.00;;
57893;SDS011;43710;47.460;19.034;2022-10-18T08:19:49;34.10;;;19.62;;
57893;SDS011;43710;47.460;19.034;2022-10-18T08:23:11;32.63;;;20.23;;
57893;SDS011;43710;47.460;19.034;2022-10-18T08:26:14;469.90;;;50.12;;
57893;SDS011;43710;47.460;19.034;2022-10-18T08:29:18;66.03;;;20.70;;
57893;SDS011;43710;47.460;19.034;2022-10-18T08:32:28;26.48;;;15.90;;
57893;SDS011;43710;47.460;19.034;2022-10-18T08:35:32;21.60;;;15.25;;
57893;SDS011;43710;47.460;19.034;2022-10-18T08:38:34;24.50;;;15.48;;
57893;SDS011;43710;47.460;19.034;2022-10-18T08:41:50;20.65;;;15.43;;
57893;SDS011;43710;47.460;19.034;2022-10-18T08:45:07;20.80;;;14.48;;
57893;SDS011;43710;47.460;19.034;2022-10-18T08:48:44;23.08;;;14.27;;
57893;SDS011;43710;47.460;19.034;2022-10-18T08:51:50;22.90;;;14.20;;
57893;SDS011;43710;47.460;19.034;2022-10-18T08:55:04;23.52;;;13.55;;
57893;SDS011;43710;47.460;19.034;2022-10-18T08:58:30;23.35;;;13.27;;
57893;SDS011;43710;47.460;19.034;2022-10-18T09:01:40;22.58;;;13.02;;
57893;SDS011;43710;47.460;19.034;2022-10-18T09:04:56;18.85;;;13.07;;
57893;SDS011;43710;47.460;19.034;2022-10-18T09:11:26;43.28;;;13.07;;
57893;SDS011;43710;47.460;19.034;2022-10-18T09:15:03;17.50;;;11.70;;
57893;SDS011;43710;47.460;19.034;2022-10-18T09:18:30;18.23;;;11.43;;
57893;SDS011;43710;47.460;19.034;2022-10-18T09:21:53;18.52;;;11.80;;
57893;SDS011;43710;47.460;19.034;2022-10-18T09:28:12;26.50;;;12.55;;
57893;SDS011;43710;47.460;19.034;2022-10-18T09:31:45;18.62;;;11.65;;
57893;SDS011;43710;47.460;19.034;2022-10-18T09:34:57;33.00;;;11.95;;
57893;SDS011;43710;47.460;19.034;2022-10-18T09:38:03;16.17;;;10.80;;
57893;SDS011;43710;47.460;19.034;2022-10-18T09:41:22;71.15;;;15.35;;
57893;SDS011;43710;47.460;19.034;2022-10-18T09:44:32;20.37;;;11.05;;
57893;SDS011;43710;47.460;19.034;2022-10-18T09:47:43;18.73;;;9.43;;
57893;SDS011;43710;47.460;19.034;2022-10-18T09:50:56;15.15;;;9.98;;
57893;SDS011;43710;47.460;19.034;2022-10-18T09:57:15;17.70;;;10.57;;
57893;SDS011;43710;47.460;19.034;2022-10-18T10:00:33;13.82;;;9.85;;
57893;SDS011;43710;47.460;19.034;2022-10-18T10:03:40;17.02;;;9.88;;
57893;SDS011;43710;47.460;19.034;2022-10-18T10:06:48;15.18;;;8.63;;
57893;SDS011;43710;47.460;19.034;2022-10-18T10:09:55;14.87;;;8.38;;
57893;SDS011;43710;47.460;19.034;2022-10-18T10:16:24;12.55;;;8.00;;
57893;SDS011;43710;47.460;19.034;2022-10-18T10:22:34;10.40;;;7.22;;
57893;SDS011;43710;47.460;19.034;2022-10-18T10:25:38;9.60;;;8.02;;
57893;SDS011;43710;47.460;19.034;2022-10-18T10:28:42;10.57;;;7.47;;
57893;SDS011;43710;47.460;19.034;2022-10-18T10:31:47;13.82;;;7.60;;
57893;SDS011;43710;47.460;19.034;2022-10-18T10:35:11;15.52;;;7.50;;
57893;SDS011;43710;47.460;19.034;2022-10-18T10:38:42;19.60;;;7.62;;
57893;SDS011;43710;47.460;19.034;2022-10-18T10:41:46;10.32;;;6.43;;
57893;SDS011;43710;47.460;19.034;2022-10-18T10:44:53;11.35;;;7.90;;
57893;SDS011;43710;47.460;19.034;2022-10-18T10:48:04;11.70;;;7.78;;
57893;SDS011;43710;47.460;19.034;2022-10-18T10:51:09;14.95;;;8.05;;
57893;SDS011;43710;47.460;19.034;2022-10-18T10:54:12;12.13;;;7.82;;
57893;SDS011;43710;47.460;19.034;2022-10-18T10:57:21;15.15;;;8.00;;
57893;SDS011;43710;47.460;19.034;2022-10-18T11:00:34;12.35;;;7.07;;
57893;SDS011;43710;47.460;19.034;2022-10-18T11:03:38;11.00;;;6.93;;
57893;SDS011;43710;47.460;19.034;2022-10-18T11:06:49;12.30;;;7.35;;
57893;SDS011;43710;47.460;19.034;2022-10-18T11:13:20;11.43;;;7.22;;
57893;SDS011;43710;47.460;19.034;2022-10-18T11:17:00;10.98;;;7.05;;
57893;SDS011;43710;47.460;19.034;2022-10-18T11:23:31;11.52;;;6.40;;
57893;SDS011;43710;47.460;19.034;2022-10-18T11:26:55;12.63;;;6.50;;
57893;SDS011;43710;47.460;19.034;2022-10-18T11:30:13;11.12;;;6.37;;
57893;SDS011;43710;47.460;19.034;2022-10-18T11:33:20;11.50;;;6.05;;
57893;SDS011;43710;47.460;19.034;2022-10-18T11:36:55;10.90;;;6.57;;
57893;SDS011;43710;47.460;19.034;2022-10-18T11:44:00;14.05;;;6.47;;
57893;SDS011;43710;47.460;19.034;2022-10-18T11:47:19;14.60;;;6.45;;
57893;SDS011;43710;47.460;19.034;2022-10-18T11:50:37;8.80;;;6.57;;
57893;SDS011;43710;47.460;19.034;2022-10-18T11:53:57;14.35;;;6.20;;
57893;SDS011;43710;47.460;19.034;2022-10-18T12:00:47;12.02;;;5.78;;
57893;SDS011;43710;47.460;19.034;2022-10-18T12:04:00;17.50;;;6.45;;
57893;SDS011;43710;47.460;19.034;2022-10-18T12:07:08;11.05;;;5.87;;
57893;SDS011;43710;47.460;19.034;2022-10-18T12:10:15;8.20;;;5.28;;
57893;SDS011;43710;47.460;19.034;2022-10-18T12:14:15;9.95;;;5.97;;
57893;SDS011;43710;47.460;19.034;2022-10-18T12:20:54;10.57;;;5.57;;
57893;SDS011;43710;47.460;19.034;2022-10-18T12:27:10;11.35;;;5.57;;
57893;SDS011;43710;47.460;19.034;2022-10-18T12:30:38;8.20;;;5.75;;
57893;SDS011;43710;47.460;19.034;2022-10-18T12:33:44;11.45;;;5.05;;
57893;SDS011;43710;47.460;19.034;2022-10-18T12:36:54;8.25;;;5.50;;
57893;SDS011;43710;47.460;19.034;2022-10-18T12:40:03;10.75;;;5.37;;
57893;SDS011;43710;47.460;19.034;2022-10-18T12:43:24;11.32;;;5.68;;
57893;SDS011;43710;47.460;19.034;2022-10-18T12:46:47;9.40;;;5.53;;
57893;SDS011;43710;47.460;19.034;2022-10-18T12:49:59;11.60;;;6.05;;
57893;SDS011;43710;47.460;19.034;2022-10-18T12:53:23;11.27;;;5.47;;
57893;SDS011;43710;47.460;19.034;2022-10-18T12:56:32;11.45;;;5.28;;
57893;SDS011;43710;47.460;19.034;2022-10-18T12:59:38;11.98;;;5.68;;
57893;SDS011;43710;47.460;19.034;2022-10-18T13:02:42;8.00;;;5.40;;
57893;SDS011;43710;47.460;19.034;2022-10-18T13:12:46;8.27;;;5.50;;
57893;SDS011;43710;47.460;19.034;2022-10-18T13:15:53;13.82;;;5.65;;
57893;SDS011;43710;47.460;19.034;2022-10-18T13:22:48;8.70;;;5.47;;
57893;SDS011;43710;47.460;19.034;2022-10-18T13:29:48;8.45;;;5.20;;
57893;SDS011;43710;47.460;19.034;2022-10-18T13:36:32;14.38;;;5.80;;
57893;SDS011;43710;47.460;19.034;2022-10-18T13:39:34;19.67;;;5.87;;
57893;SDS011;43710;47.460;19.034;2022-10-18T13:42:38;13.20;;;5.10;;
57893;SDS011;43710;47.460;19.034;2022-10-18T13:45:42;15.98;;;5.68;;
57893;SDS011;43710;47.460;19.034;2022-10-18T13:48:52;17.17;;;5.47;;
57893;SDS011;43710;47.460;19.034;2022-10-18T13:52:09;19.52;;;5.03;;
57893;SDS011;43710;47.460;19.034;2022-10-18T13:58:43;12.65;;;5.10;;
57893;SDS011;43710;47.460;19.034;2022-10-18T14:02:32;28.35;;;5.40;;
57893;SDS011;43710;47.460;19.034;2022-10-18T14:09:22;19.75;;;6.53;;
57893;SDS011;43710;47.460;19.034;2022-10-18T14:12:46;15.63;;;5.37;;
57893;SDS011;43710;47.460;19.034;2022-10-18T14:15:56;8.63;;;4.70;;
57893;SDS011;43710;47.460;19.034;2022-10-18T14:26:07;40.58;;;29.95;;
57893;SDS011;43710;47.460;19.034;2022-10-18T14:29:15;13.80;;;7.78;;
57893;SDS011;43710;47.460;19.034;2022-10-18T14:32:25;20.17;;;9.77;;
57893;SDS011;43710;47.460;19.034;2022-10-18T14:35:30;19.02;;;6.60;;
57893;SDS011;43710;47.460;19.034;2022-10-18T14:38:35;10.75;;;5.25;;
57893;SDS011;43710;47.460;19.034;2022-10-18T14:41:46;8.77;;;5.18;;
57893;SDS011;43710;47.460;19.034;2022-10-18T14:44:51;13.23;;;6.78;;
57893;SDS011;43710;47.460;19.034;2022-10-18T14:48:04;9.77;;;5.65;;
57893;SDS011;43710;47.460;19.034;2022-10-18T14:51:08;7.97;;;6.18;;
57893;SDS011;43710;47.460;19.034;2022-10-18T14:54:35;9.88;;;7.60;;
57893;SDS011;43710;47.460;19.034;2022-10-18T15:00:39;12.43;;;10.88;;
57893;SDS011;43710;47.460;19.034;2022-10-18T15:03:46;12.63;;;7.60;;
57893;SDS011;43710;47.460;19.034;2022-10-18T15:06:48;90.78;;;10.63;;
57893;SDS011;43710;47.460;19.034;2022-10-18T15:09:51;37.38;;;9.80;;
57893;SDS011;43710;47.460;19.034;2022-10-18T15:12:55;16.45;;;9.15;;
57893;SDS011;43710;47.460;19.034;2022-10-18T15:16:14;11.35;;;5.72;;
57893;SDS011;43710;47.460;19.034;2022-10-18T15:22:32;32.20;;;6.35;;
